• Join FlightAware (Why Join?)
  • Login
  • US Flag 
Rudolph Flight #1: Arrived! 
11:06PM EST


 

Airport Tracker/Info


-or-


 

Live Flight TrackerFlight Track Log ✈ CTL311 ✈ 27-Jun-2013 ✈ KDSM - KMKC

Flight Track Log - Related Links

Times and Time Zones

All times are in EDT time to prevent confusion due to time zone crossing. See the CTL311 flight status page for this flight to view local times or setup timezone preferences in your user account.

Time Position Orientation Groundspeed Altitude Reporting Facility
EDT Latitude Longitude Course Direction KTS MPH feet Rate Location/Type
10:44AM 41.5347 -93.6589 229° Southwest 70 81 1,400  Level Minneapolis Center
10:45AM 41.5269 -93.6708 229° Southwest 88 101 2,000 960 Climbing Minneapolis Center
10:46AM 41.5097 -93.7028 234° Southwest 99 114 2,900 840 Climbing Minneapolis Center
10:47AM 41.4769 -93.7142 195° South 128 147 3,700 780 Climbing Minneapolis Center
10:48AM 41.4336 -93.7267 192° South 142 163 4,500 720 Climbing Minneapolis Center
10:49AM 41.3947 -93.7386 193° South 145 167 5,200 660 Climbing Minneapolis Center
10:50AM 41.3556 -93.7503 193° South 146 168 5,900 420 Climbing Minneapolis Center
10:51AM 41.3147 -93.7681 198° South 154 177 6,100 60 Climbing Minneapolis Center
10:52AM 41.2656 -93.7864 196° South 175 201 6,100  Level Minneapolis Center
10:53AM 41.2103 -93.8106 198° South 179 206 6,100 -60 Level Minneapolis Center
10:54AM 41.1631 -93.8286 196° South 179 206 6,000  Descending Minneapolis Center
10:55AM 41.1225 -93.8489 201° Southwest 175 201 6,100  Climbing Minneapolis Center
10:56AM 41.0558 -93.8811 200° South 174 200 6,100  Level Minneapolis Center
10:57AM 41.0056 -93.9022 198° South 176 203 6,100  Level Minneapolis Center
10:58AM 40.9589 -93.9233 199° South 177 204 6,100  Level Minneapolis Center
10:59AM 40.9097 -93.9456 199° South 174 200 6,100  Level Minneapolis Center
11:00AM 40.8658 -93.9619 196° South 178 205 6,100  Level Minneapolis Center
11:01AM 40.8183 -93.9797 196° South 179 206 6,100 -60 Level Minneapolis Center
11:02AM 40.7708 -93.9956 194° South 178 205 6,000  Descending Minneapolis Center
11:03AM 40.7114 -94.0167 195° South 183 211 6,100  Climbing Minneapolis Center
11:04AM 40.6642 -94.0344 196° South 181 208 6,100  Level Minneapolis Center
11:05AM 40.6161 -94.0525 196° South 180 207 6,100  Level Minneapolis Center
11:06AM 40.5683 -94.0661 192° South 179 206 6,100  Level Minneapolis Center
11:07AM 40.5225 -94.0839 196° South 176 203 6,100 -60 Level Minneapolis Center
11:08AM 40.4653 -94.1050 196° South 178 205 6,000 -60 Descending Minneapolis Center
11:09AM 40.4178 -94.1225 196° South 178 205 6,000  Level Minneapolis Center
11:11AM 40.3708 -94.1369 193° South 177 204 6,000  Level Minneapolis Center
11:12AM 40.3250 -94.1539 196° South 174 200 6,000  Level Minneapolis Center
11:13AM 40.2675 -94.1689 191° South 175 201 6,000  Level Minneapolis Center
11:14AM 40.2203 -94.1850 195° South 178 205 6,000  Level Minneapolis Center
11:15AM 40.1769 -94.2025 197° South 169 194 6,000  Level Minneapolis Center
11:16AM 40.1311 -94.2208 197° South 170 196 6,100  Climbing Minneapolis Center
11:17AM 40.0844 -94.2361 194° South 172 198 6,000 -60 Descending Minneapolis Center
11:18AM 40.0283 -94.2556 195° South 174 200 6,000 -60 Level Minneapolis Center
11:19AM 39.9819 -94.2717 195° South 174 200 5,900  Descending Minneapolis Center
11:20AM 39.9369 -94.2889 196° South 173 199 6,000 60 Climbing Minneapolis Center
11:21AM 39.8814 -94.3078 195° South 172 198 6,100  Climbing Minneapolis Center
11:22AM 39.8242 -94.3306 197° South 175 201 6,100 -120 Level Kansas City Center
11:23AM 39.7761 -94.3422 191° South 180 207 5,900 -360 Descending Kansas City Center
11:24AM 39.7192 -94.3619 195° South 189 217 5,400 -420 Descending Kansas City Center
11:25AM 39.6703 -94.3806 196° South 190 219 5,100 -360 Descending Kansas City Center
11:26AM 39.6150 -94.4092 202° Southwest 190 219 4,700 -360 Descending Kansas City Center
11:27AM 39.5678 -94.4322 201° Southwest 190 219 4,400 -300 Descending Kansas City Center
11:28AM 39.5144 -94.4556 199° South 183 211 4,100 -300 Descending Kansas City Center
11:29AM 39.4686 -94.4747 198° South 180 207 3,900 -540 Descending Kansas City Center
11:30AM 39.4156 -94.5019 202° Southwest 182 209 3,100 -480 Descending Kansas City Center
11:32AM 39.3733 -94.5189 197° South 168 193 3,000 -60 Descending Kansas City Center
11:33AM 39.3358 -94.5314 194° South 148 170 3,000  Level Kansas City Center
11:34AM 39.2922 -94.5431 192° South 143 165 3,000  Level Kansas City Center
11:35AM 39.2550 -94.5519 190° South 142 163 3,100 -360 Climbing Kansas City Center
11:36AM 39.2133 -94.5669 196° South 139 160 2,300 -660 Descending Kansas City Center
11:37AM 39.1808 -94.5767 193° South 124 143 1,800 -540 Descending Kansas City Center
11:38AM 39.1481 -94.5872 194° South 112 129 1,200 -420 Descending Kansas City Center
11:39AM 39.1192 -94.5939 190° South 112 129 1,000 -240 Descending Kansas City Center